createdAt,value
2023-02-08T00:00:08.228Z,80
2023-02-08T00:01:07.903Z,80
2023-02-08T00:02:08.669Z,80
2023-02-08T00:03:08.161Z,80
2023-02-08T00:04:08.864Z,80
2023-02-08T00:05:08.278Z,80
2023-02-08T00:06:07.821Z,80
2023-02-08T00:07:08.442Z,80
2023-02-08T00:10:08.249Z,80
2023-02-08T00:11:07.969Z,80
2023-02-08T00:12:08.550Z,80
2023-02-08T00:13:08.246Z,80
2023-02-08T00:14:08.787Z,80
2023-02-08T00:15:08.416Z,80
2023-02-08T00:16:08.313Z,80
2023-02-08T00:17:08.733Z,80
2023-02-08T00:19:09.029Z,80
2023-02-08T00:20:08.417Z,80
2023-02-08T00:21:07.840Z,80
2023-02-08T00:22:08.655Z,80
2023-02-08T00:24:08.695Z,80
2023-02-08T00:25:08.225Z,80
2023-02-08T00:26:07.832Z,80
2023-02-08T00:27:08.493Z,80
2023-02-08T00:28:13.752Z,80
2023-02-08T00:30:08.279Z,80
2023-02-08T00:31:08.564Z,80
2023-02-08T00:34:08.801Z,80
2023-02-08T00:35:08.205Z,80
2023-02-08T00:36:08.013Z,80
2023-02-08T00:37:08.622Z,80
2023-02-08T00:38:08.236Z,80
2023-02-08T00:39:07.856Z,80
2023-02-08T00:41:07.957Z,80
2023-02-08T00:42:08.688Z,80
2023-02-08T00:43:08.227Z,80
2023-02-08T00:44:07.908Z,80
2023-02-08T00:45:08.299Z,80
2023-02-08T00:46:08.545Z,80
2023-02-08T00:47:08.156Z,80
2023-02-08T00:48:08.787Z,80
2023-02-08T00:49:08.374Z,80
2023-02-08T00:50:07.869Z,80
2023-02-08T00:51:08.752Z,80
2023-02-08T00:54:08.356Z,80
2023-02-08T00:57:08.081Z,80
2023-02-08T00:58:08.832Z,80
2023-02-08T00:59:08.412Z,80
2023-02-08T01:00:08.185Z,80
2023-02-08T01:01:08.717Z,80
2023-02-08T01:02:08.138Z,80
2023-02-08T01:03:08.882Z,80
2023-02-08T01:05:07.906Z,80
2023-02-08T01:06:08.708Z,80
2023-02-08T01:07:08.166Z,80
2023-02-08T01:08:07.918Z,80
2023-02-08T01:09:08.283Z,80
2023-02-08T01:10:07.894Z,80
2023-02-08T01:12:08.041Z,80
2023-02-08T01:13:08.740Z,80
2023-02-08T01:14:08.240Z,80
2023-02-08T01:15:08.016Z,80
2023-02-08T01:16:08.619Z,80
2023-02-08T01:17:07.936Z,80
2023-02-08T01:18:08.512Z,80
2023-02-08T01:19:07.978Z,80
2023-02-08T01:21:08.213Z,80
2023-02-08T01:22:08.553Z,80
2023-02-08T01:24:08.120Z,80
2023-02-08T01:25:08.561Z,80
2023-02-08T01:26:08.258Z,80
2023-02-08T01:29:08.253Z,80
2023-02-08T01:30:07.903Z,80
2023-02-08T01:31:07.975Z,80
2023-02-08T01:32:08.459Z,80
2023-02-08T01:33:08.115Z,80
2023-02-08T01:34:08.902Z,80
2023-02-08T01:35:08.250Z,80
2023-02-08T01:36:07.985Z,80
2023-02-08T01:38:08.194Z,80
2023-02-08T01:39:07.966Z,80
2023-02-08T01:40:08.605Z,80
2023-02-08T01:41:08.237Z,80
2023-02-08T01:42:07.810Z,80
2023-02-08T01:44:08.022Z,80
2023-02-08T01:45:08.709Z,80
2023-02-08T01:46:08.104Z,80
2023-02-08T01:47:08.317Z,80
2023-02-08T01:48:08.020Z,80
2023-02-08T01:49:08.703Z,80
2023-02-08T01:50:08.341Z,80
2023-02-08T01:51:07.869Z,80
2023-02-08T01:52:08.681Z,80
2023-02-08T01:53:08.210Z,80
2023-02-08T01:54:08.814Z,80
2023-02-08T01:56:08.071Z,80
2023-02-08T01:57:08.668Z,80
2023-02-08T01:58:08.231Z,80
2023-02-08T01:59:07.722Z,80
2023-02-08T02:00:08.914Z,80
2023-02-08T02:01:08.709Z,80
2023-02-08T02:02:08.117Z,80
2023-02-08T02:03:07.847Z,80
2023-02-08T02:04:08.628Z,80
2023-02-08T02:05:08.040Z,80
2023-02-08T02:06:08.733Z,80
2023-02-08T02:07:08.388Z,80
2023-02-08T02:08:08.027Z,80
2023-02-08T02:09:08.543Z,80
2023-02-08T02:10:07.946Z,80
2023-02-08T02:11:07.876Z,80
2023-02-08T02:12:08.226Z,80
2023-02-08T02:13:07.949Z,80
2023-02-08T02:15:08.086Z,80
2023-02-08T02:17:07.902Z,80
2023-02-08T02:18:08.601Z,80
2023-02-08T02:20:07.834Z,80
2023-02-08T02:21:08.543Z,80
2023-02-08T02:22:07.876Z,80
2023-02-08T02:23:08.742Z,80
2023-02-08T02:24:08.442Z,81
2023-02-08T02:25:08.004Z,81
2023-02-08T02:26:08.490Z,80
2023-02-08T02:27:08.019Z,81
2023-02-08T02:28:08.151Z,81
2023-02-08T02:29:08.461Z,81
2023-02-08T02:31:08.161Z,81
2023-02-08T02:32:08.794Z,81
2023-02-08T02:33:08.495Z,81
2023-02-08T02:34:08.112Z,81
2023-02-08T02:35:07.728Z,81
2023-02-08T02:36:08.555Z,81
2023-02-08T02:37:07.866Z,81
2023-02-08T02:38:08.538Z,81
2023-02-08T02:40:07.635Z,81
2023-02-08T02:41:08.361Z,81
2023-02-08T02:42:08.212Z,81
2023-02-08T02:44:08.396Z,81
2023-02-08T02:45:07.932Z,81
2023-02-08T02:46:08.678Z,81
2023-02-08T02:47:08.213Z,81
2023-02-08T02:48:07.897Z,81
2023-02-08T02:49:08.576Z,81
2023-02-08T02:51:08.540Z,81
2023-02-08T02:52:08.205Z,81
2023-02-08T02:53:07.940Z,81
2023-02-08T02:55:08.087Z,81
2023-02-08T02:57:08.072Z,81
2023-02-08T02:58:08.002Z,81
2023-02-08T02:59:08.635Z,81
2023-02-08T03:00:08.309Z,81
2023-02-08T03:01:08.925Z,81
2023-02-08T03:02:08.083Z,81
2023-02-08T03:03:07.860Z,81
2023-02-08T03:05:08.063Z,81
2023-02-08T03:07:08.416Z,81
2023-02-08T03:09:08.624Z,81
2023-02-08T03:10:08.121Z,81
2023-02-08T03:11:08.805Z,81
2023-02-08T03:12:08.358Z,81
2023-02-08T03:13:07.928Z,81
2023-02-08T03:14:08.559Z,81
2023-02-08T03:15:08.196Z,81
2023-02-08T03:16:08.682Z,81
2023-02-08T03:18:08.709Z,81
2023-02-08T03:19:08.308Z,81
2023-02-08T03:20:07.735Z,81
2023-02-08T03:23:08.495Z,81
2023-02-08T03:24:08.392Z,81
2023-02-08T03:25:07.823Z,81
2023-02-08T03:26:08.546Z,81
2023-02-08T03:27:07.911Z,81
2023-02-08T03:28:08.615Z,81
2023-02-08T03:29:07.978Z,81
2023-02-08T03:30:08.797Z,81
2023-02-08T03:31:09.044Z,81
2023-02-08T03:32:08.067Z,81
2023-02-08T03:33:08.527Z,81
2023-02-08T03:34:08.308Z,81
2023-02-08T03:35:07.880Z,81
2023-02-08T03:37:07.980Z,81
2023-02-08T03:38:08.484Z,81
2023-02-08T03:39:08.578Z,81
2023-02-08T03:40:08.300Z,81
2023-02-08T03:41:07.942Z,81
2023-02-08T03:42:08.401Z,81
2023-02-08T03:43:08.024Z,81
2023-02-08T03:44:08.598Z,81
2023-02-08T03:45:08.186Z,81
2023-02-08T03:46:08.134Z,81
2023-02-08T03:47:08.584Z,81
2023-02-08T03:49:07.894Z,81
2023-02-08T03:50:08.588Z,81
2023-02-08T03:51:08.117Z,81
2023-02-08T03:52:08.718Z,81
2023-02-08T03:53:08.270Z,81
2023-02-08T03:54:07.956Z,81
2023-02-08T03:55:08.577Z,81
2023-02-08T03:56:08.246Z,81
2023-02-08T03:57:08.732Z,81
2023-02-08T03:58:08.280Z,81
2023-02-08T03:59:08.057Z,81
2023-02-08T04:01:08.898Z,81
2023-02-08T04:03:07.922Z,81
2023-02-08T04:05:08.052Z,81
2023-02-08T04:07:08.287Z,81
2023-02-08T04:08:07.808Z,81
2023-02-08T04:09:08.574Z,81
2023-02-08T04:10:08.205Z,81
2023-02-08T04:11:07.842Z,81
2023-02-08T04:13:08.181Z,81
2023-02-08T04:14:07.775Z,81
2023-02-08T04:15:08.358Z,81
2023-02-08T04:17:08.381Z,81
2023-02-08T04:18:07.906Z,81
2023-02-08T04:19:08.382Z,81
2023-02-08T04:20:07.969Z,81
2023-02-08T04:21:08.547Z,82
2023-02-08T04:22:08.071Z,81
2023-02-08T04:23:08.769Z,81
2023-02-08T04:24:08.305Z,81
2023-02-08T04:25:07.882Z,81
2023-02-08T04:26:08.422Z,81
2023-02-08T04:27:10.291Z,81
2023-02-08T04:28:09.010Z,82
2023-02-08T04:29:08.381Z,82
2023-02-08T04:30:08.019Z,82
2023-02-08T04:31:08.401Z,82
2023-02-08T04:32:08.364Z,81
2023-02-08T04:33:08.050Z,82
2023-02-08T04:34:08.486Z,82
2023-02-08T04:36:08.015Z,82
2023-02-08T04:37:08.623Z,82
2023-02-08T04:38:08.328Z,82
2023-02-08T04:40:08.470Z,82
2023-02-08T04:41:08.283Z,82
2023-02-08T04:42:09.594Z,82
2023-02-08T04:43:08.607Z,82
2023-02-08T04:44:08.216Z,82
2023-02-08T04:45:07.867Z,82
2023-02-08T04:46:09.020Z,82
2023-02-08T04:49:08.545Z,82
2023-02-08T04:50:08.088Z,82
2023-02-08T04:51:08.523Z,81
2023-02-08T04:52:08.226Z,82
2023-02-08T04:53:07.633Z,82
2023-02-08T04:54:08.607Z,82
2023-02-08T04:55:08.150Z,82
2023-02-08T04:56:08.750Z,82
2023-02-08T04:57:08.228Z,82
2023-02-08T04:58:08.559Z,82
2023-02-08T04:59:07.938Z,82
2023-02-08T05:00:08.803Z,81
2023-02-08T05:01:07.882Z,82
2023-02-08T05:03:07.970Z,82
2023-02-08T05:04:08.533Z,82
2023-02-08T05:05:08.315Z,82
2023-02-08T05:06:07.995Z,82
2023-02-08T05:07:08.420Z,82
2023-02-08T05:08:07.911Z,82
2023-02-08T05:09:08.604Z,82
2023-02-08T05:10:07.997Z,82
2023-02-08T05:12:08.266Z,82
2023-02-08T05:13:07.865Z,82
2023-02-08T05:14:08.496Z,82
2023-02-08T05:15:08.061Z,82
2023-02-08T05:16:08.729Z,82
2023-02-08T05:17:07.861Z,82
2023-02-08T05:18:08.631Z,82
2023-02-08T05:19:07.832Z,82
2023-02-08T05:20:08.677Z,82
2023-02-08T05:21:08.078Z,82
2023-02-08T05:22:08.728Z,82
2023-02-08T05:24:07.944Z,82
2023-02-08T05:26:07.967Z,82
2023-02-08T05:29:08.172Z,82
2023-02-08T05:30:08.741Z,82
2023-02-08T05:31:08.258Z,82
2023-02-08T05:32:08.789Z,82
2023-02-08T05:33:08.253Z,82
2023-02-08T05:36:10.514Z,82
2023-02-08T05:37:08.756Z,82
2023-02-08T05:38:08.378Z,82
2023-02-08T05:39:07.985Z,82
2023-02-08T05:40:08.656Z,82
2023-02-08T05:41:08.097Z,82
2023-02-08T05:42:08.911Z,81
2023-02-08T05:43:08.350Z,82
2023-02-08T05:45:08.580Z,81
2023-02-08T05:47:09.048Z,81
2023-02-08T05:48:08.309Z,81
2023-02-08T05:49:07.720Z,81
2023-02-08T05:50:08.493Z,81
2023-02-08T05:51:08.273Z,81
2023-02-08T05:52:08.024Z,81
2023-02-08T05:53:08.418Z,81
2023-02-08T05:54:08.018Z,81
2023-02-08T05:55:08.435Z,81
2023-02-08T05:56:08.254Z,81
2023-02-08T05:57:07.955Z,81
2023-02-08T05:58:08.675Z,81
2023-02-08T05:59:08.240Z,81
2023-02-08T06:00:08.879Z,81
2023-02-08T06:01:08.292Z,81
2023-02-08T06:02:07.887Z,81
2023-02-08T06:03:08.854Z,81
2023-02-08T06:04:08.423Z,81
2023-02-08T06:05:08.716Z,81
2023-02-08T06:06:08.174Z,81
2023-02-08T06:07:07.906Z,81
2023-02-08T06:08:08.745Z,81
2023-02-08T06:09:08.256Z,81
2023-02-08T06:10:07.846Z,81
2023-02-08T06:12:08.042Z,81
2023-02-08T06:14:08.104Z,81
2023-02-08T06:15:07.739Z,81
2023-02-08T06:16:08.614Z,81
2023-02-08T06:17:08.040Z,81
2023-02-08T06:18:08.492Z,81
2023-02-08T06:19:08.354Z,82
2023-02-08T06:20:07.670Z,81
2023-02-08T06:21:08.538Z,82
2023-02-08T06:22:08.138Z,82
2023-02-08T06:23:08.409Z,82
2023-02-08T06:24:08.388Z,82
2023-02-08T06:26:08.680Z,82
2023-02-08T06:27:08.366Z,82
2023-02-08T06:28:07.792Z,82
2023-02-08T06:29:08.582Z,82
2023-02-08T06:30:08.103Z,82
2023-02-08T06:31:08.330Z,82
2023-02-08T06:32:08.390Z,82
2023-02-08T06:35:08.624Z,82
2023-02-08T06:38:08.456Z,82
2023-02-08T06:39:08.157Z,82
2023-02-08T06:40:08.798Z,82
2023-02-08T06:41:08.355Z,82
2023-02-08T06:42:08.186Z,82
2023-02-08T06:43:08.743Z,82
2023-02-08T06:44:08.281Z,82
2023-02-08T06:45:08.066Z,82
2023-02-08T06:46:08.606Z,82
2023-02-08T06:47:08.044Z,82
2023-02-08T06:48:08.521Z,82
2023-02-08T06:49:08.247Z,82
2023-02-08T06:50:07.886Z,82
2023-02-08T06:51:08.394Z,82
2023-02-08T06:52:07.921Z,82
2023-02-08T06:53:08.564Z,82
2023-02-08T06:54:08.050Z,82
2023-02-08T06:55:08.567Z,82
2023-02-08T06:56:08.387Z,82
2023-02-08T06:57:08.052Z,82
2023-02-08T06:58:08.597Z,82
2023-02-08T06:59:08.289Z,82
2023-02-08T07:00:07.815Z,82
2023-02-08T07:01:08.227Z,82
2023-02-08T07:03:08.285Z,82
2023-02-08T07:04:07.930Z,82
2023-02-08T07:05:08.421Z,82
2023-02-08T07:06:11.668Z,82
2023-02-08T07:07:07.696Z,82
2023-02-08T07:08:08.386Z,82
2023-02-08T07:09:07.860Z,82
2023-02-08T07:10:08.539Z,82
2023-02-08T07:11:08.247Z,82
2023-02-08T07:12:08.700Z,82
2023-02-08T07:13:08.327Z,82
2023-02-08T07:14:07.869Z,82
2023-02-08T07:15:08.489Z,82
2023-02-08T07:16:08.090Z,82
2023-02-08T07:17:08.670Z,82
2023-02-08T07:18:08.386Z,82
2023-02-08T07:19:07.840Z,82
2023-02-08T07:20:08.596Z,83
2023-02-08T07:21:08.521Z,83
2023-02-08T07:22:11.648Z,83
2023-02-08T07:23:08.312Z,83
2023-02-08T07:25:08.488Z,83
2023-02-08T07:26:08.184Z,83
2023-02-08T07:27:08.807Z,83
2023-02-08T07:28:08.437Z,83
2023-02-08T07:29:07.918Z,83
2023-02-08T07:30:08.407Z,82
2023-02-08T07:31:07.999Z,83
2023-02-08T07:32:08.271Z,82
2023-02-08T07:33:08.440Z,82
2023-02-08T07:34:07.947Z,82
2023-02-08T07:35:08.548Z,82
2023-02-08T07:37:07.665Z,82
2023-02-08T07:38:08.410Z,82
2023-02-08T07:39:08.024Z,82
2023-02-08T07:40:08.606Z,82
2023-02-08T07:41:08.124Z,82
2023-02-08T07:42:07.759Z,82
2023-02-08T07:43:08.471Z,82
2023-02-08T07:44:08.006Z,82
2023-02-08T07:45:08.986Z,82
2023-02-08T07:46:08.164Z,82
2023-02-08T07:47:07.772Z,82
2023-02-08T07:48:08.209Z,82
2023-02-08T07:49:07.993Z,82
2023-02-08T07:50:08.634Z,82
2023-02-08T07:51:08.216Z,82
2023-02-08T07:52:08.621Z,82
2023-02-08T07:53:08.296Z,82
2023-02-08T07:54:08.570Z,82
2023-02-08T07:55:08.427Z,82
2023-02-08T07:56:08.082Z,82
2023-02-08T07:58:08.491Z,82
2023-02-08T07:59:08.093Z,82
2023-02-08T08:01:27.387Z,82
2023-02-08T08:02:08.750Z,82
2023-02-08T08:03:08.207Z,82
2023-02-08T08:04:08.289Z,82
2023-02-08T08:05:08.441Z,82
2023-02-08T08:06:08.089Z,82
2023-02-08T08:08:08.060Z,82
2023-02-08T08:09:08.671Z,82
2023-02-08T08:10:08.384Z,82
2023-02-08T08:11:10.086Z,82
2023-02-08T08:12:08.594Z,82
2023-02-08T08:13:08.165Z,82
2023-02-08T08:14:07.832Z,82
2023-02-08T08:15:08.510Z,82
2023-02-08T08:16:08.326Z,82
2023-02-08T08:17:08.750Z,82
2023-02-08T08:18:08.277Z,82
2023-02-08T08:19:07.980Z,82
2023-02-08T08:21:07.975Z,82
2023-02-08T08:22:08.816Z,82
2023-02-08T08:24:07.965Z,82
2023-02-08T08:25:08.407Z,81
2023-02-08T08:26:08.133Z,81
2023-02-08T08:27:08.951Z,81
2023-02-08T08:28:08.576Z,81
2023-02-08T08:29:08.161Z,81
2023-02-08T08:30:08.759Z,81
2023-02-08T08:31:08.719Z,81
2023-02-08T08:33:08.669Z,81
2023-02-08T08:34:08.232Z,81
2023-02-08T08:35:08.706Z,81
2023-02-08T08:36:08.520Z,80
2023-02-08T08:37:08.158Z,80
2023-02-08T08:38:07.748Z,80
2023-02-08T08:39:08.477Z,80
2023-02-08T08:40:08.124Z,80
2023-02-08T08:41:07.815Z,80
2023-02-08T08:42:08.335Z,80
2023-02-08T08:43:07.728Z,80
2023-02-08T08:44:08.806Z,80
2023-02-08T08:45:08.987Z,80
2023-02-08T08:46:08.265Z,81
2023-02-08T08:47:08.505Z,80
2023-02-08T08:48:08.285Z,80
2023-02-08T08:49:07.788Z,80
2023-02-08T08:50:08.344Z,80
2023-02-08T08:51:07.853Z,80
2023-02-08T08:52:08.581Z,80
2023-02-08T08:53:08.209Z,80
2023-02-08T08:55:08.471Z,79
2023-02-08T08:56:08.282Z,79
2023-02-08T08:58:08.148Z,79
2023-02-08T08:59:07.743Z,79
2023-02-08T09:00:08.582Z,79
2023-02-08T09:01:08.592Z,79
2023-02-08T09:02:08.586Z,79
2023-02-08T09:03:08.186Z,79
2023-02-08T09:04:08.595Z,79
2023-02-08T09:05:08.217Z,79
2023-02-08T09:08:08.076Z,78
2023-02-08T09:09:08.674Z,78
2023-02-08T09:10:08.246Z,78
2023-02-08T09:11:07.914Z,78
2023-02-08T09:12:08.250Z,77
2023-02-08T09:13:08.154Z,77
2023-02-08T09:14:10.658Z,77
2023-02-08T09:15:08.057Z,77
2023-02-08T09:16:08.238Z,76
2023-02-08T09:17:08.505Z,76
2023-02-08T09:19:08.878Z,76
2023-02-08T09:20:11.037Z,75
2023-02-08T09:21:08.042Z,75
2023-02-08T09:22:08.689Z,75
2023-02-08T09:23:08.351Z,75
2023-02-08T09:24:07.941Z,75
2023-02-08T09:25:08.452Z,75
2023-02-08T09:26:08.198Z,75
2023-02-08T09:27:08.888Z,74
2023-02-08T09:28:08.695Z,74
2023-02-08T09:30:08.466Z,74
2023-02-08T09:31:08.395Z,73
2023-02-08T09:32:10.660Z,73
2023-02-08T09:34:08.780Z,73
2023-02-08T09:35:08.344Z,73
2023-02-08T09:37:08.520Z,73
2023-02-08T09:38:07.946Z,73
2023-02-08T09:39:08.479Z,73
2023-02-08T09:40:08.377Z,73
2023-02-08T09:43:08.172Z,71
2023-02-08T09:44:07.920Z,71
2023-02-08T09:45:08.365Z,71
2023-02-08T09:46:07.887Z,71
2023-02-08T09:47:08.491Z,71
2023-02-08T09:48:08.165Z,70
2023-02-08T09:49:07.819Z,70
2023-02-08T09:50:08.518Z,69
2023-02-08T09:51:07.924Z,69
2023-02-08T09:52:08.441Z,69
2023-02-08T09:53:08.157Z,69
2023-02-08T09:55:08.452Z,69
2023-02-08T09:56:08.430Z,69
2023-02-08T09:57:08.823Z,68
2023-02-08T09:58:08.288Z,67
2023-02-08T09:59:08.208Z,68
2023-02-08T10:00:08.861Z,67
2023-02-08T10:01:10.572Z,67
2023-02-08T10:03:08.279Z,67
2023-02-08T10:04:07.941Z,67
2023-02-08T10:05:08.375Z,66
2023-02-08T10:06:08.150Z,66
2023-02-08T10:07:08.682Z,66
2023-02-08T10:08:08.328Z,66
2023-02-08T10:09:07.765Z,66
2023-02-08T10:10:08.415Z,66
2023-02-08T10:11:07.920Z,66
2023-02-08T10:12:08.552Z,66
2023-02-08T10:13:08.120Z,66
2023-02-08T10:14:08.740Z,66
2023-02-08T10:15:08.360Z,66
2023-02-08T10:16:08.042Z,66
2023-02-08T10:17:08.346Z,66
2023-02-08T10:18:08.129Z,66
2023-02-08T10:19:08.456Z,66
2023-02-08T10:20:08.148Z,66
2023-02-08T10:21:08.653Z,66
2023-02-08T10:22:08.505Z,66
2023-02-08T10:23:08.138Z,65
2023-02-08T10:24:08.826Z,65
2023-02-08T10:25:08.460Z,65
2023-02-08T10:26:07.711Z,65
2023-02-08T10:27:08.493Z,65
2023-02-08T10:29:08.948Z,65
2023-02-08T10:30:08.442Z,65
2023-02-08T10:31:08.121Z,66
2023-02-08T10:33:07.938Z,65
2023-02-08T10:34:10.754Z,65
2023-02-08T10:35:08.071Z,66
2023-02-08T10:36:08.636Z,66
2023-02-08T10:37:08.189Z,66
2023-02-08T10:38:07.970Z,65
2023-02-08T10:39:08.466Z,65
2023-02-08T10:40:08.316Z,65
2023-02-08T10:41:08.231Z,65
2023-02-08T10:42:08.565Z,64
2023-02-08T10:43:08.095Z,64
2023-02-08T10:44:08.981Z,65
2023-02-08T10:45:26.299Z,64
2023-02-08T10:46:09.002Z,64
2023-02-08T10:47:08.242Z,64
2023-02-08T10:48:07.818Z,63
2023-02-08T10:49:08.396Z,64
2023-02-08T10:50:08.025Z,64
2023-02-08T10:51:08.752Z,64
2023-02-08T10:52:08.654Z,64
2023-02-08T10:53:07.997Z,64
2023-02-08T10:54:08.600Z,64
2023-02-08T10:56:07.945Z,64
2023-02-08T10:57:08.453Z,64
2023-02-08T10:58:08.232Z,63
2023-02-08T11:00:08.396Z,63
2023-02-08T11:01:10.896Z,64
2023-02-08T11:02:08.329Z,64
2023-02-08T11:03:08.055Z,64
2023-02-08T11:05:08.198Z,62
2023-02-08T11:06:08.753Z,63
2023-02-08T11:07:08.262Z,63
2023-02-08T11:08:07.850Z,62
2023-02-08T11:09:08.536Z,62
2023-02-08T11:10:08.142Z,62
2023-02-08T11:11:07.770Z,61
2023-02-08T11:12:08.464Z,61
2023-02-08T11:13:08.036Z,62
2023-02-08T11:14:08.434Z,62
2023-02-08T11:15:08.289Z,62
2023-02-08T11:16:08.389Z,62
2023-02-08T11:17:07.955Z,62
2023-02-08T11:18:08.531Z,62
2023-02-08T11:19:08.187Z,62
2023-02-08T11:20:08.022Z,62
2023-02-08T11:21:08.451Z,62
2023-02-08T11:22:07.995Z,62
2023-02-08T11:23:08.528Z,62
2023-02-08T11:24:07.989Z,62
2023-02-08T11:25:08.809Z,62
2023-02-08T11:26:08.322Z,62
2023-02-08T11:27:08.052Z,62
2023-02-08T11:28:08.863Z,62
2023-02-08T11:29:08.204Z,62
2023-02-08T11:30:08.729Z,62
2023-02-08T11:31:08.176Z,61
2023-02-08T11:32:09.024Z,61
2023-02-08T11:33:08.091Z,61
2023-02-08T11:34:07.949Z,61
2023-02-08T11:35:08.580Z,61
2023-02-08T11:36:08.061Z,61
2023-02-08T11:37:08.792Z,61
2023-02-08T11:38:08.495Z,61
2023-02-08T11:39:08.064Z,61
2023-02-08T11:41:08.065Z,61
2023-02-08T11:42:08.775Z,61
2023-02-08T11:43:08.322Z,60
2023-02-08T11:44:07.976Z,61
2023-02-08T11:45:08.615Z,61
2023-02-08T11:46:08.865Z,60
2023-02-08T11:47:08.105Z,60
2023-02-08T11:48:08.093Z,60
2023-02-08T11:49:08.696Z,60
2023-02-08T11:50:08.234Z,60
2023-02-08T11:51:08.695Z,59
2023-02-08T11:52:08.267Z,59
2023-02-08T11:53:07.796Z,60
2023-02-08T11:54:08.636Z,60
2023-02-08T11:55:08.119Z,60
2023-02-08T11:56:08.727Z,60
2023-02-08T11:57:08.160Z,60
2023-02-08T11:58:07.876Z,60
2023-02-08T11:59:08.466Z,60
2023-02-08T12:00:08.204Z,60
2023-02-08T12:01:07.765Z,60
2023-02-08T12:02:08.683Z,60
2023-02-08T12:04:08.927Z,61
2023-02-08T12:05:08.474Z,61
2023-02-08T12:06:08.175Z,61
2023-02-08T12:07:08.494Z,61
2023-02-08T12:08:08.137Z,61
2023-02-08T12:09:07.856Z,61
2023-02-08T12:10:08.500Z,60
2023-02-08T12:11:08.158Z,60
2023-02-08T12:12:08.728Z,60
2023-02-08T12:13:08.262Z,60
2023-02-08T12:14:08.165Z,60
2023-02-08T12:15:08.456Z,60
2023-02-08T12:16:09.090Z,61
2023-02-08T12:17:08.722Z,61
2023-02-08T12:18:08.236Z,61
2023-02-08T12:19:07.982Z,61
2023-02-08T12:20:08.725Z,61
2023-02-08T12:21:08.219Z,61
2023-02-08T12:22:09.203Z,61
2023-02-08T12:23:08.518Z,61
2023-02-08T12:24:08.101Z,61
2023-02-08T12:25:08.805Z,61
2023-02-08T12:26:08.263Z,61
2023-02-08T12:28:08.997Z,61
2023-02-08T12:29:08.333Z,61
2023-02-08T12:30:08.046Z,61
2023-02-08T12:31:08.472Z,61
2023-02-08T12:32:07.842Z,60
2023-02-08T12:33:08.188Z,60
2023-02-08T12:34:08.445Z,60
2023-02-08T12:35:08.843Z,60
2023-02-08T12:36:12.794Z,60
2023-02-08T12:37:07.836Z,60
2023-02-08T12:38:08.509Z,60
2023-02-08T12:39:28.398Z,60
2023-02-08T12:40:08.405Z,60
2023-02-08T12:41:08.208Z,60
2023-02-08T12:42:08.889Z,61
2023-02-08T12:43:08.706Z,61
2023-02-08T12:44:08.289Z,61
2023-02-08T12:45:07.884Z,61
2023-02-08T12:46:08.963Z,60
2023-02-08T12:47:08.280Z,60
2023-02-08T12:48:11.162Z,60
2023-02-08T12:49:08.493Z,60
2023-02-08T12:50:08.101Z,60
2023-02-08T12:51:08.642Z,60
2023-02-08T12:52:10.330Z,60
2023-02-08T12:53:08.164Z,60
2023-02-08T12:54:08.743Z,60
2023-02-08T12:55:08.126Z,60
2023-02-08T12:57:09.254Z,60
2023-02-08T12:58:08.244Z,60
2023-02-08T12:59:19.093Z,60
2023-02-08T13:00:08.281Z,60
2023-02-08T13:01:08.624Z,60
2023-02-08T13:02:08.225Z,60
2023-02-08T13:03:08.083Z,60
2023-02-08T13:04:08.710Z,60
2023-02-08T13:05:08.265Z,60
2023-02-08T13:06:10.271Z,60
2023-02-08T13:07:08.353Z,60
2023-02-08T13:08:07.982Z,60
2023-02-08T13:09:08.538Z,60
2023-02-08T13:10:08.195Z,60
2023-02-08T13:11:24.689Z,60
2023-02-08T13:12:08.354Z,60
2023-02-08T13:14:08.674Z,60
2023-02-08T13:15:12.033Z,60
2023-02-08T13:16:08.262Z,60
2023-02-08T13:17:08.724Z,60
2023-02-08T13:18:08.443Z,60
2023-02-08T13:19:08.043Z,60
2023-02-08T13:21:08.335Z,60
2023-02-08T13:22:08.730Z,60
2023-02-08T13:23:08.517Z,60
2023-02-08T13:24:08.073Z,60
2023-02-08T13:26:08.193Z,59
2023-02-08T13:27:08.118Z,59
2023-02-08T13:28:09.251Z,59
2023-02-08T13:29:08.818Z,58
2023-02-08T13:31:08.210Z,59
2023-02-08T13:32:08.457Z,59
2023-02-08T13:33:08.197Z,59
2023-02-08T13:34:08.783Z,59
2023-02-08T13:35:08.334Z,59
2023-02-08T13:36:07.926Z,59
2023-02-08T13:37:28.359Z,59
2023-02-08T13:38:08.529Z,59
2023-02-08T13:39:08.254Z,59
2023-02-08T13:40:07.831Z,59
2023-02-08T13:41:08.468Z,59
2023-02-08T13:42:08.121Z,57
2023-02-08T13:43:08.784Z,58
2023-02-08T13:44:08.397Z,58
2023-02-08T13:45:07.810Z,58
2023-02-08T13:46:08.512Z,58
2023-02-08T13:47:07.995Z,58
2023-02-08T13:48:08.364Z,58
2023-02-08T13:49:07.902Z,58
2023-02-08T13:50:08.496Z,58
2023-02-08T13:51:08.096Z,58
2023-02-08T13:52:08.604Z,58
2023-02-08T13:53:08.199Z,59
2023-02-08T13:54:11.306Z,58
2023-02-08T13:55:08.349Z,58
2023-02-08T13:56:07.857Z,58
2023-02-08T13:57:08.458Z,59
2023-02-08T13:58:07.998Z,58
2023-02-08T13:59:08.795Z,58
2023-02-08T14:01:07.870Z,58
2023-02-08T14:02:08.663Z,58
2023-02-08T14:03:08.573Z,58
2023-02-08T14:04:07.977Z,58
2023-02-08T14:05:11.088Z,58
2023-02-08T14:06:08.208Z,58
2023-02-08T14:07:08.023Z,58
2023-02-08T14:08:08.554Z,58
2023-02-08T14:09:08.010Z,58
2023-02-08T14:10:08.672Z,58
2023-02-08T14:11:08.198Z,58
2023-02-08T14:14:07.824Z,58
2023-02-08T14:15:08.742Z,58
2023-02-08T14:16:08.471Z,58
2023-02-08T14:17:08.130Z,58
2023-02-08T14:18:07.932Z,58
2023-02-08T14:20:08.364Z,59
2023-02-08T14:21:07.940Z,58
2023-02-08T14:22:08.673Z,58
2023-02-08T14:23:08.070Z,58
2023-02-08T14:24:08.546Z,58
2023-02-08T14:25:08.259Z,58
2023-02-08T14:26:07.924Z,58
2023-02-08T14:28:08.319Z,58
2023-02-08T14:30:08.512Z,58
2023-02-08T14:31:08.421Z,58
2023-02-08T14:32:08.988Z,58
2023-02-08T14:33:08.181Z,58
2023-02-08T14:34:07.903Z,58
2023-02-08T14:35:08.549Z,58
2023-02-08T14:36:08.078Z,58
2023-02-08T14:37:08.530Z,58
2023-02-08T14:38:10.007Z,58
2023-02-08T14:39:07.863Z,58
2023-02-08T14:40:08.362Z,58
2023-02-08T14:41:08.114Z,58
2023-02-08T14:42:08.660Z,58
2023-02-08T14:44:08.836Z,58
2023-02-08T14:45:08.451Z,58
2023-02-08T14:46:08.218Z,58
2023-02-08T14:47:08.148Z,58
2023-02-08T14:48:08.194Z,58
2023-02-08T14:49:08.019Z,58
2023-02-08T14:50:08.632Z,58
2023-02-08T14:51:08.350Z,58
2023-02-08T14:52:08.442Z,58
2023-02-08T14:53:08.096Z,58
2023-02-08T14:54:08.696Z,58
2023-02-08T14:55:08.299Z,57
2023-02-08T14:56:07.990Z,57
2023-02-08T14:57:08.750Z,57
2023-02-08T14:58:08.256Z,57
2023-02-08T15:00:08.723Z,57
2023-02-08T15:01:09.111Z,57
2023-02-08T15:02:08.271Z,57
2023-02-08T15:04:09.476Z,57
2023-02-08T15:05:14.271Z,57
2023-02-08T15:06:07.885Z,57
2023-02-08T15:07:08.315Z,58
2023-02-08T15:08:08.131Z,57
2023-02-08T15:09:07.802Z,57
2023-02-08T15:10:08.302Z,57
2023-02-08T15:12:08.617Z,57
2023-02-08T15:13:07.929Z,57
2023-02-08T15:14:08.550Z,57
2023-02-08T15:15:08.161Z,57
2023-02-08T15:16:08.641Z,58
2023-02-08T15:17:07.995Z,58
2023-02-08T15:18:08.406Z,58
2023-02-08T15:19:08.130Z,58
2023-02-08T15:20:08.898Z,58
2023-02-08T15:21:08.158Z,58
2023-02-08T15:22:07.583Z,58
2023-02-08T15:23:08.390Z,58
2023-02-08T15:24:10.187Z,58
2023-02-08T15:25:08.676Z,58
2023-02-08T15:27:08.708Z,58
2023-02-08T15:28:08.675Z,58
2023-02-08T15:29:08.123Z,58
2023-02-08T15:30:08.691Z,58
2023-02-08T15:31:07.880Z,58
2023-02-08T15:32:08.489Z,58
2023-02-08T15:33:07.909Z,58
2023-02-08T15:34:08.765Z,58
2023-02-08T15:36:10.477Z,58
2023-02-08T15:37:08.435Z,58
2023-02-08T15:38:08.244Z,58
2023-02-08T15:39:07.946Z,58
2023-02-08T15:40:08.394Z,58
2023-02-08T15:41:08.088Z,58
2023-02-08T15:43:08.351Z,58
2023-02-08T15:44:08.080Z,59
2023-02-08T15:47:08.459Z,59
2023-02-08T15:49:07.924Z,59
2023-02-08T15:50:08.294Z,59
2023-02-08T15:51:09.739Z,59
2023-02-08T15:52:08.706Z,59
2023-02-08T15:53:08.186Z,59
2023-02-08T15:54:07.699Z,59
2023-02-08T15:55:08.319Z,59
2023-02-08T15:56:08.084Z,59
2023-02-08T15:57:08.729Z,59
2023-02-08T15:58:08.413Z,59
2023-02-08T15:59:08.067Z,59
2023-02-08T16:00:08.780Z,59
2023-02-08T16:01:08.848Z,59
2023-02-08T16:02:08.272Z,59
2023-02-08T16:03:07.974Z,59
2023-02-08T16:04:08.668Z,59
2023-02-08T16:05:07.864Z,59
2023-02-08T16:06:08.689Z,59
2023-02-08T16:07:08.184Z,59
2023-02-08T16:08:08.809Z,59
2023-02-08T16:09:08.173Z,59
2023-02-08T16:11:08.607Z,59